Debi Sharp — WDE8185 — position and weather

sailwx.info

Track history (hours):
 
Tides and Currents Weather Stations Pressure Air Temp Water Temp Dewpoint Dewpoint Depression Visibility Wind Speed Wind Dir Waves Ship Positions

Debi Sharp

Owner: Crounse Corporation, Maysville, KY. More information available from US FCC via Universal Licensing System and Coast Guard Vessel Documentation Center.

Last reported at 2014-Mar-12 19:33 UTC. Time now 2014-Nov-23 17:25 UTC.
Position N 39°02' W 084°20'.
Warning: this ship's position is months out of date.

Length 41 m.

Type: Towing. MMSI: 367402530.

Date/timePositionNaut miles runAvg speedWind from/ knotsBaromVisibWave heightAir tempDewpointWater temp
2014-Mar-12 19:33N 39°02' W 084°20'4 3.7
2014-Mar-12 18:33N 39°03' W 084°25'4 3.7
2014-Mar-12 17:33N 39°06' W 084°26'3 2.9
2014-Mar-12 16:33N 39°06' W 084°30'3 3.0
2014-Mar-12 15:32N 39°05' W 084°34'2 2.3
2014-Mar-12 14:33N 39°04' W 084°37'4 3.6
2014-Mar-12 13:33N 39°06' W 084°41'4 3.7
2014-Mar-12 12:33N 39°09' W 084°44'3 2.6
2014-Mar-12 11:33N 39°07' W 084°47'11 2.6
2014-Mar-12 07:23N 38°57' W 084°51'13 1.3
2014-Mar-11 21:30N 39°08' W 084°43'7 7.1
2014-Mar-11 20:33N 39°04' W 084°36'3 2.8
2014-Mar-11 19:30N 39°06' W 084°33'5 4.9
2014-Mar-11 18:33N 39°07' W 084°27'6 5.8
2014-Mar-11 17:33N 39°02' W 084°22'5 4.8
2014-Mar-11 16:33N 38°59' W 084°18'0 0.1
2014-Mar-11 15:32N 38°59' W 084°18'7 6.7
2014-Mar-11 14:33N 38°53' W 084°14'1 1.0
2014-Mar-11 13:33N 38°52' W 084°14'2 1.8
2014-Mar-11 12:33N 38°54' W 084°15'5 5.5
2014-Mar-11 11:33N 38°59' W 084°18'5 5.2
2014-Mar-11 10:33N 39°02' W 084°22'5 4.6
2014-Mar-11 09:33N 39°06' W 084°26'4 4.0
2014-Mar-11 08:33N 39°05' W 084°31'5 4.8
2014-Mar-11 07:33N 39°04' W 084°37'5 5.5
2014-Mar-11 06:33N 39°08' W 084°43'4 4.3
2014-Mar-11 05:32N 39°07' W 084°48'0 0.4
2014-Mar-11 04:32N 39°07' W 084°48'1 0.7
2014-Mar-11 03:33N 39°07' W 084°49'10 0.7
2014-Mar-10 14:25N 38°57' W 084°51'  
2014-Mar-04 18:27N 39°04' W 084°53'6 7.0
2014-Mar-04 17:32N 39°08' W 084°46'6 5.8
2014-Mar-04 16:33N 39°06' W 084°40'6 6.1
2014-Mar-04 15:33N 39°06' W 084°32'4 4.5
2014-Mar-04 14:33N 39°05' W 084°26'3 3.1
2014-Mar-04 13:34N 39°03' W 084°23'5 5.4
2014-Mar-04 12:33N 38°59' W 084°18'6 6.0
2014-Mar-04 11:33N 38°54' W 084°14'1 1.1
2014-Mar-04 10:33N 38°53' W 084°14'1 0.6
2014-Mar-04 09:33N 38°52' W 084°14'1 0.6
2014-Mar-04 08:32N 38°53' W 084°14'1 0.6
2014-Mar-04 07:33N 38°52' W 084°14'0 0.5
2014-Mar-04 06:32N 38°53' W 084°14'0 0.4
2014-Mar-04 05:33N 38°53' W 084°14'0 0.0
2014-Mar-04 04:32N 38°53' W 084°14'3 2.7
2014-Mar-04 03:32N 38°50' W 084°14'4 3.8
2014-Mar-04 02:31N 38°48' W 084°10'1 1.4
2014-Mar-04 01:31N 38°47' W 084°09'  
Track history (hours):
 
Tides and Currents Weather Stations Pressure Air Temp Water Temp Dewpoint Dewpoint Depression Visibility Wind Speed Wind Dir Waves Ship Positions

Debi Sharp

Owner: Crounse Corporation, Maysville, KY. More information available from US FCC via Universal Licensing System and Coast Guard Vessel Documentation Center.

Last reported at 2014-Mar-12 19:33 UTC. Time now 2014-Nov-23 17:25 UTC.
Position N 39°02' W 084°20'.
Warning: this ship's position is months out of date.

Length 41 m.

Type: Towing. MMSI: 367402530.

Date/timePositionNaut miles runAvg speedWind from/ knotsBaromVisibWave heightAir tempDewpointWater temp
2014-Mar-12 19:33N 39°02' W 084°20'4 3.7
2014-Mar-12 18:33N 39°03' W 084°25'4 3.7
2014-Mar-12 17:33N 39°06' W 084°26'3 2.9
2014-Mar-12 16:33N 39°06' W 084°30'3 3.0
2014-Mar-12 15:32N 39°05' W 084°34'2 2.3
2014-Mar-12 14:33N 39°04' W 084°37'4 3.6
2014-Mar-12 13:33N 39°06' W 084°41'4 3.7
2014-Mar-12 12:33N 39°09' W 084°44'3 2.6
2014-Mar-12 11:33N 39°07' W 084°47'11 2.6
2014-Mar-12 07:23N 38°57' W 084°51'13 1.3
2014-Mar-11 21:30N 39°08' W 084°43'7 7.1
2014-Mar-11 20:33N 39°04' W 084°36'3 2.8
2014-Mar-11 19:30N 39°06' W 084°33'5 4.9
2014-Mar-11 18:33N 39°07' W 084°27'6 5.8
2014-Mar-11 17:33N 39°02' W 084°22'5 4.8
2014-Mar-11 16:33N 38°59' W 084°18'0 0.1
2014-Mar-11 15:32N 38°59' W 084°18'7 6.7
2014-Mar-11 14:33N 38°53' W 084°14'1 1.0
2014-Mar-11 13:33N 38°52' W 084°14'2 1.8
2014-Mar-11 12:33N 38°54' W 084°15'5 5.5
2014-Mar-11 11:33N 38°59' W 084°18'5 5.2
2014-Mar-11 10:33N 39°02' W 084°22'5 4.6
2014-Mar-11 09:33N 39°06' W 084°26'4 4.0
2014-Mar-11 08:33N 39°05' W 084°31'5 4.8
2014-Mar-11 07:33N 39°04' W 084°37'5 5.5
2014-Mar-11 06:33N 39°08' W 084°43'4 4.3
2014-Mar-11 05:32N 39°07' W 084°48'0 0.4
2014-Mar-11 04:32N 39°07' W 084°48'1 0.7
2014-Mar-11 03:33N 39°07' W 084°49'10 0.7
2014-Mar-10 14:25N 38°57' W 084°51'  
2014-Mar-04 18:27N 39°04' W 084°53'6 7.0
2014-Mar-04 17:32N 39°08' W 084°46'6 5.8
2014-Mar-04 16:33N 39°06' W 084°40'6 6.1
2014-Mar-04 15:33N 39°06' W 084°32'4 4.5
2014-Mar-04 14:33N 39°05' W 084°26'3 3.1
2014-Mar-04 13:34N 39°03' W 084°23'5 5.4
2014-Mar-04 12:33N 38°59' W 084°18'6 6.0
2014-Mar-04 11:33N 38°54' W 084°14'1 1.1
2014-Mar-04 10:33N 38°53' W 084°14'1 0.6
2014-Mar-04 09:33N 38°52' W 084°14'1 0.6
2014-Mar-04 08:32N 38°53' W 084°14'1 0.6
2014-Mar-04 07:33N 38°52' W 084°14'0 0.5
2014-Mar-04 06:32N 38°53' W 084°14'0 0.4
2014-Mar-04 05:33N 38°53' W 084°14'0 0.0
2014-Mar-04 04:32N 38°53' W 084°14'3 2.7
2014-Mar-04 03:32N 38°50' W 084°14'4 3.8
2014-Mar-04 02:31N 38°48' W 084°10'1 1.4
2014-Mar-04 01:31N 38°47' W 084°09'  

Dump ship's entire track history